createdAt,value
2023-12-31T00:00:30.565Z,95811.56
2023-12-31T00:03:32.251Z,95813.38
2023-12-31T00:06:33.874Z,95811.44
2023-12-31T00:09:35.509Z,95796.75
2023-12-31T00:12:38.116Z,95800.91
2023-12-31T00:15:39.796Z,95792.41
2023-12-31T00:18:42.214Z,95794.09
2023-12-31T00:21:44.679Z,95788.09
2023-12-31T00:24:46.330Z,95772.41
2023-12-31T00:27:48.343Z,95765.47
2023-12-31T00:30:50.493Z,95766.44
2023-12-31T00:33:57.864Z,95769.19
2023-12-31T00:37:00.022Z,95750.88
2023-12-31T00:40:01.712Z,95741.19
2023-12-31T00:43:03.703Z,95741.41
2023-12-31T00:46:06.232Z,95746.56
2023-12-31T00:49:08.294Z,95743.81
2023-12-31T00:52:10.403Z,95734.25
2023-12-31T00:55:12.112Z,95730.78
2023-12-31T00:58:14.916Z,95722.16
2023-12-31T01:01:17.066Z,95718.69
2023-12-31T01:04:19.184Z,95716.88
2023-12-31T01:07:20.921Z,95708.28
2023-12-31T01:10:23.132Z,95711.72
2023-12-31T01:13:25.218Z,95704.09
2023-12-31T01:16:28.548Z,95706.00
2023-12-31T01:19:30.930Z,95707.56
2023-12-31T01:22:33.014Z,95711.03
2023-12-31T01:25:34.762Z,95702.50
2023-12-31T01:28:36.431Z,95710.31
2023-12-31T01:31:38.852Z,95706.94
2023-12-31T01:34:41.044Z,95704.19
2023-12-31T01:37:43.102Z,95702.50
2023-12-31T01:40:54.782Z,95703.34
2023-12-31T01:44:04.544Z,95694.72
2023-12-31T01:47:06.823Z,95692.94
2023-12-31T01:50:09.248Z,95685.31
2023-12-31T01:53:12.758Z,95684.56
2023-12-31T01:56:14.993Z,95690.66
2023-12-31T01:59:17.650Z,95686.47
2023-12-31T02:02:22.576Z,95675.25
2023-12-31T02:05:25.515Z,95676.09
2023-12-31T02:08:27.754Z,95661.34
2023-12-31T02:11:29.493Z,95670.09
2023-12-31T02:14:31.119Z,95649.16
2023-12-31T02:17:33.257Z,95655.25
2023-12-31T02:20:35.487Z,95648.44
2023-12-31T02:23:38.074Z,95652.75
2023-12-31T02:26:41.155Z,95641.38
2023-12-31T02:29:43.033Z,95645.69
2023-12-31T02:32:44.750Z,95642.31
2023-12-31T02:35:46.818Z,95631.81
2023-12-31T02:38:50.963Z,95631.09
2023-12-31T02:41:52.963Z,95620.69
2023-12-31T02:44:55.184Z,95623.44
2023-12-31T02:47:57.356Z,95614.81
2023-12-31T02:50:59.432Z,95611.47
2023-12-31T02:54:02.083Z,95604.44
2023-12-31T02:57:09.592Z,95600.22
2023-12-31T03:00:11.941Z,95602.03
2023-12-31T03:03:13.665Z,95591.50
2023-12-31T03:06:17.206Z,95588.13
2023-12-31T03:09:21.841Z,95580.50
2023-12-31T03:12:24.322Z,95583.25
2023-12-31T03:15:26.368Z,95578.81
2023-12-31T03:18:28.400Z,95571.03
2023-12-31T03:21:30.525Z,95572.94
2023-12-31T03:24:32.148Z,95573.94
2023-12-31T03:27:34.181Z,95560.06
2023-12-31T03:30:35.840Z,95565.19
2023-12-31T03:33:38.038Z,95562.69
2023-12-31T03:36:40.147Z,95552.28
2023-12-31T03:39:42.421Z,95558.47
2023-12-31T03:42:44.207Z,95553.22
2023-12-31T03:45:46.975Z,95551.66
2023-12-31T03:48:49.074Z,95539.59
2023-12-31T03:51:51.722Z,95536.13
2023-12-31T03:54:53.357Z,95537.09
2023-12-31T03:57:55.421Z,95526.69
2023-12-31T04:00:57.504Z,95524.16
2023-12-31T04:03:59.820Z,95513.91
2023-12-31T04:07:01.984Z,95516.53
2023-12-31T04:10:04.190Z,95507.19
2023-12-31T04:13:06.568Z,95503.75
2023-12-31T04:16:11.978Z,95487.34
2023-12-31T04:19:16.152Z,95491.66
2023-12-31T04:22:18.912Z,95483.88
2023-12-31T04:25:21.117Z,95480.53
2023-12-31T04:28:22.816Z,95472.78
2023-12-31T04:31:24.948Z,95474.69
2023-12-31T04:34:26.632Z,95468.59
2023-12-31T04:37:28.649Z,95455.94
2023-12-31T04:40:30.661Z,95465.34
2023-12-31T04:43:32.399Z,95457.47
2023-12-31T04:46:34.486Z,95456.63
2023-12-31T04:49:36.261Z,95449.94
2023-12-31T04:52:38.457Z,95447.31
2023-12-31T04:55:41.069Z,95447.31
2023-12-31T04:58:42.749Z,95444.81
2023-12-31T05:01:44.905Z,95443.84
2023-12-31T05:04:47.016Z,95433.72
2023-12-31T05:07:49.415Z,95431.91
2023-12-31T05:10:51.166Z,95431.19
2023-12-31T05:13:54.421Z,95426.41
2023-12-31T05:16:56.530Z,95434.19
2023-12-31T05:19:58.601Z,95423.78
2023-12-31T05:23:00.819Z,95433.56
2023-12-31T05:26:02.927Z,95426.75
2023-12-31T05:29:05.248Z,95421.75
2023-12-31T05:32:07.512Z,95413.25
2023-12-31T05:35:10.334Z,95408.13
2023-12-31T05:38:12.026Z,95403.00
2023-12-31T05:41:14.416Z,95412.66
2023-12-31T05:44:16.080Z,95401.53
2023-12-31T05:47:44.345Z,95408.72
2023-12-31T05:50:40.671Z,95389.50
2023-12-31T05:53:42.782Z,95388.66
2023-12-31T05:56:44.791Z,95381.00
2023-12-31T05:59:46.498Z,95384.34
2023-12-31T06:02:48.141Z,95380.06
2023-12-31T06:05:50.922Z,95374.78
2023-12-31T06:08:52.640Z,95360.94
2023-12-31T06:11:55.444Z,95355.81
2023-12-31T06:14:57.051Z,95341.34
2023-12-31T06:17:59.246Z,95345.31
2023-12-31T06:21:01.352Z,95349.75
2023-12-31T06:24:03.527Z,95353.31
2023-12-31T06:27:05.985Z,95357.63
2023-12-31T06:30:08.496Z,95350.91
2023-12-31T06:33:10.321Z,95355.00
2023-12-31T06:36:12.131Z,95343.75
2023-12-31T06:39:14.608Z,95339.22
2023-12-31T06:42:16.293Z,95331.34
2023-12-31T06:45:18.770Z,95315.72
2023-12-31T06:48:20.955Z,95324.44
2023-12-31T06:51:22.861Z,95320.97
2023-12-31T06:54:24.922Z,95320.00
2023-12-31T06:57:26.939Z,95318.22
2023-12-31T07:00:28.991Z,95307.94
2023-12-31T07:03:30.646Z,95307.00
2023-12-31T07:06:32.688Z,95321.81
2023-12-31T07:09:34.447Z,95328.00
2023-12-31T07:12:36.125Z,95333.97
2023-12-31T07:15:38.399Z,95325.84
2023-12-31T07:18:40.119Z,95308.28
2023-12-31T07:21:41.818Z,95296.94
2023-12-31T07:24:43.432Z,95294.09
2023-12-31T07:27:45.475Z,95293.38
2023-12-31T07:30:48.395Z,95297.19
2023-12-31T07:33:51.546Z,95294.44
2023-12-31T07:36:53.183Z,95292.66
2023-12-31T07:39:54.856Z,95295.88
2023-12-31T07:42:57.282Z,95289.66
2023-12-31T07:45:59.871Z,95300.06
2023-12-31T07:49:01.565Z,95293.84
2023-12-31T07:52:03.928Z,95296.38
2023-12-31T07:55:10.154Z,95300.53
2023-12-31T07:58:11.919Z,95286.31
2023-12-31T08:01:13.724Z,95301.59
2023-12-31T08:04:15.648Z,95303.00
2023-12-31T08:07:18.309Z,95304.34
2023-12-31T08:10:20.358Z,95304.78
2023-12-31T08:13:22.903Z,95307.75
2023-12-31T08:16:24.607Z,95307.28
2023-12-31T08:19:26.733Z,95299.03
2023-12-31T08:22:28.519Z,95310.97
2023-12-31T08:25:30.189Z,95300.31
2023-12-31T08:28:32.096Z,95296.75
2023-12-31T08:31:33.763Z,95304.47
2023-12-31T08:34:35.511Z,95304.09
2023-12-31T08:37:38.093Z,95315.91
2023-12-31T08:40:40.265Z,95295.84
2023-12-31T08:43:42.429Z,95313.22
2023-12-31T08:46:44.208Z,95309.25
2023-12-31T08:49:46.343Z,95317.75
2023-12-31T08:52:48.300Z,95318.09
2023-12-31T08:55:52.167Z,95316.72
2023-12-31T08:58:53.964Z,95318.84
2023-12-31T09:01:56.811Z,95316.81
2023-12-31T09:04:58.957Z,95326.00
2023-12-31T09:08:03.350Z,95327.41
2023-12-31T09:11:06.115Z,95323.56
2023-12-31T09:14:08.145Z,95320.53
2023-12-31T09:17:10.285Z,95326.63
2023-12-31T09:20:12.177Z,95328.88
2023-12-31T09:23:14.724Z,95332.94
2023-12-31T09:26:16.450Z,95337.13
2023-12-31T09:29:18.935Z,95340.31
2023-12-31T09:32:21.050Z,95338.41
2023-12-31T09:35:23.143Z,95341.72
2023-12-31T09:38:25.149Z,95335.50
2023-12-31T09:41:28.054Z,95382.66
2023-12-31T09:44:30.363Z,95371.16
2023-12-31T09:47:33.301Z,95379.50
2023-12-31T09:50:35.331Z,95385.09
2023-12-31T09:53:40.375Z,95374.03
2023-12-31T09:56:44.108Z,95377.69
2023-12-31T09:59:49.673Z,95378.84
2023-12-31T10:02:54.697Z,95372.91
2023-12-31T10:05:58.188Z,95363.53
2023-12-31T10:09:01.243Z,95369.94
2023-12-31T10:12:02.894Z,95358.31
2023-12-31T10:15:05.503Z,95334.03
2023-12-31T10:18:09.371Z,95307.94
2023-12-31T10:21:12.643Z,95302.69
2023-12-31T10:24:14.795Z,95311.03
2023-12-31T10:27:17.347Z,95300.09
2023-12-31T10:30:20.211Z,95293.44
2023-12-31T10:33:30.181Z,95285.81
2023-12-31T10:36:34.632Z,95278.31
2023-12-31T10:39:38.004Z,95275.84
2023-12-31T10:42:40.581Z,95276.25
2023-12-31T10:45:42.742Z,95270.44
2023-12-31T10:49:04.871Z,95264.75
2023-12-31T10:52:07.184Z,95264.47
2023-12-31T10:55:13.912Z,95252.50
2023-12-31T10:58:17.650Z,95249.16
2023-12-31T11:01:19.769Z,95225.56
2023-12-31T11:04:22.972Z,95243.19
2023-12-31T11:07:28.210Z,95226.63
2023-12-31T11:10:31.243Z,95213.53
2023-12-31T11:13:34.682Z,95221.59
2023-12-31T11:17:04.533Z,95213.47
2023-12-31T11:20:41.881Z,95206.50
2023-12-31T11:24:00.509Z,95187.78
2023-12-31T11:27:32.318Z,95184.84
2023-12-31T11:30:54.379Z,95178.63
2023-12-31T11:33:56.577Z,95171.78
2023-12-31T11:37:01.824Z,95156.69
2023-12-31T11:40:05.934Z,95149.00
2023-12-31T11:43:14.832Z,95137.66
2023-12-31T11:46:39.721Z,95132.31
2023-12-31T11:50:14.912Z,95122.78
2023-12-31T11:53:17.327Z,95103.50
2023-12-31T11:56:31.816Z,95095.78
2023-12-31T11:59:37.660Z,95093.19
2023-12-31T12:02:39.379Z,95081.66
2023-12-31T12:05:41.129Z,95071.13
2023-12-31T12:08:43.239Z,95062.09
2023-12-31T12:11:45.300Z,95055.69
2023-12-31T12:14:50.604Z,95037.06
2023-12-31T12:17:53.475Z,95034.09
2023-12-31T12:20:56.792Z,95025.75
2023-12-31T12:23:58.571Z,95022.78
2023-12-31T12:27:05.667Z,95008.03
2023-12-31T12:30:10.313Z,95008.78
2023-12-31T12:33:15.937Z,95021.28
2023-12-31T12:36:19.182Z,95013.81
2023-12-31T12:39:21.763Z,95012.84
2023-12-31T12:42:27.365Z,95009.84
2023-12-31T12:45:34.074Z,95011.53
2023-12-31T12:48:41.581Z,95015.84
2023-12-31T12:51:45.430Z,95021.78
2023-12-31T12:54:47.065Z,95011.34
2023-12-31T12:57:49.324Z,95021.13
2023-12-31T13:00:50.963Z,94997.38
2023-12-31T13:03:53.436Z,95008.16
2023-12-31T13:06:59.088Z,95016.31
2023-12-31T13:10:01.513Z,95027.25
2023-12-31T13:13:04.708Z,95019.41
2023-12-31T13:16:13.136Z,95017.25
2023-12-31T13:19:21.471Z,95017.56
2023-12-31T13:22:23.323Z,95026.53
2023-12-31T13:25:25.619Z,95023.34
2023-12-31T13:28:28.892Z,95031.81
2023-12-31T13:31:31.078Z,95044.59
2023-12-31T13:34:32.699Z,95050.56
2023-12-31T13:37:34.766Z,95066.84
2023-12-31T13:40:36.925Z,95068.34
2023-12-31T13:43:39.047Z,95074.28
2023-12-31T13:46:41.141Z,95082.94
2023-12-31T13:49:42.836Z,95085.44
2023-12-31T13:52:53.047Z,95088.56
2023-12-31T13:55:55.173Z,95091.56
2023-12-31T13:58:58.758Z,95099.53
2023-12-31T14:02:00.622Z,95097.34
2023-12-31T14:05:02.377Z,95099.69
2023-12-31T14:08:04.517Z,95106.97
2023-12-31T14:11:07.420Z,95114.81
2023-12-31T14:14:10.685Z,95119.13
2023-12-31T14:17:12.575Z,95143.06
2023-12-31T14:20:14.378Z,95159.19
2023-12-31T14:23:16.743Z,95164.66
2023-12-31T14:26:18.824Z,95178.78
2023-12-31T14:29:20.480Z,95179.28
2023-12-31T14:32:22.337Z,95177.78
2023-12-31T14:35:24.922Z,95193.22
2023-12-31T14:38:27.012Z,95189.41
2023-12-31T14:41:28.747Z,95195.19
2023-12-31T14:44:30.874Z,95204.69
2023-12-31T14:47:32.588Z,95204.16
2023-12-31T14:50:36.025Z,95212.34
2023-12-31T14:53:38.127Z,95211.31
2023-12-31T14:56:40.206Z,95201.69
2023-12-31T14:59:42.291Z,95204.50
2023-12-31T15:02:44.354Z,95200.72
2023-12-31T15:05:46.454Z,95185.91
2023-12-31T15:08:54.141Z,95187.22
2023-12-31T15:11:55.832Z,95191.56
2023-12-31T15:14:58.347Z,95189.25
2023-12-31T15:18:00.192Z,95198.38
2023-12-31T15:21:01.972Z,95206.69
2023-12-31T15:24:04.925Z,95219.50
2023-12-31T15:27:07.613Z,95218.53
2023-12-31T15:30:10.543Z,95213.53
2023-12-31T15:33:12.427Z,95206.91
2023-12-31T15:36:16.989Z,95198.41
2023-12-31T15:39:20.500Z,95196.09
2023-12-31T15:42:23.498Z,95197.41
2023-12-31T15:45:26.551Z,95210.91
2023-12-31T15:48:28.338Z,95213.88
2023-12-31T15:51:30.232Z,95216.84
2023-12-31T15:54:32.556Z,95225.03
2023-12-31T15:57:34.175Z,95234.16
2023-12-31T16:00:36.389Z,95242.28
2023-12-31T16:03:38.143Z,95256.56
2023-12-31T16:06:40.190Z,95256.06
2023-12-31T16:09:42.315Z,95261.69
2023-12-31T16:12:44.350Z,95261.88
2023-12-31T16:15:45.984Z,95274.66
2023-12-31T16:18:48.048Z,95270.31
2023-12-31T16:21:49.870Z,95270.97
2023-12-31T16:24:52.022Z,95281.13
2023-12-31T16:27:54.024Z,95284.22
2023-12-31T16:30:56.235Z,95299.84
2023-12-31T16:33:59.060Z,95290.16
2023-12-31T16:37:01.152Z,95307.09
2023-12-31T16:40:03.701Z,95306.06
2023-12-31T16:43:09.528Z,95313.00
2023-12-31T16:46:11.526Z,95316.16
2023-12-31T16:49:13.275Z,95322.78
2023-12-31T16:52:14.991Z,95331.53
2023-12-31T16:55:17.203Z,95335.47
2023-12-31T16:58:19.383Z,95319.84
2023-12-31T17:01:21.996Z,95333.94
2023-12-31T17:04:23.812Z,95333.75
2023-12-31T17:07:25.493Z,95341.16
2023-12-31T17:10:27.591Z,95339.16
2023-12-31T17:13:29.746Z,95339.44
2023-12-31T17:16:31.426Z,95353.88
2023-12-31T17:19:33.132Z,95355.16
2023-12-31T17:22:36.439Z,95357.94
2023-12-31T17:25:38.523Z,95349.78
2023-12-31T17:28:40.556Z,95350.53
2023-12-31T17:31:42.712Z,95356.16
2023-12-31T17:34:44.399Z,95356.44
2023-12-31T17:37:46.683Z,95354.97
2023-12-31T17:40:50.471Z,95340.66
2023-12-31T17:43:52.254Z,95353.72
2023-12-31T17:46:54.372Z,95362.84
2023-12-31T17:49:56.111Z,95362.28
2023-12-31T17:52:59.706Z,95367.22
2023-12-31T17:56:02.132Z,95353.63
2023-12-31T17:59:04.032Z,95350.63
2023-12-31T18:02:05.802Z,95336.88
2023-12-31T18:05:07.885Z,95329.50
2023-12-31T18:08:10.101Z,95318.09
2023-12-31T18:11:11.782Z,95319.50
2023-12-31T18:14:13.418Z,95330.13
2023-12-31T18:17:16.057Z,95326.97
2023-12-31T18:20:18.281Z,95318.25
2023-12-31T18:23:20.475Z,95338.16
2023-12-31T18:26:24.043Z,95347.38
2023-12-31T18:29:26.172Z,95351.19
2023-12-31T18:32:28.037Z,95354.69
2023-12-31T18:35:29.755Z,95355.78
2023-12-31T18:38:31.409Z,95341.91
2023-12-31T18:41:33.044Z,95360.72
2023-12-31T18:44:35.582Z,95366.44
2023-12-31T18:47:37.282Z,95370.38
2023-12-31T18:50:39.402Z,95371.66
2023-12-31T18:53:41.083Z,95369.31
2023-12-31T18:56:43.958Z,95373.22
2023-12-31T18:59:45.985Z,95371.56
2023-12-31T19:02:47.661Z,95377.16
2023-12-31T19:05:49.770Z,95381.50
2023-12-31T19:08:51.875Z,95385.94
2023-12-31T19:11:53.960Z,95396.00
2023-12-31T19:15:00.850Z,95394.63
2023-12-31T19:18:05.610Z,95394.63
2023-12-31T19:21:07.521Z,95396.91
2023-12-31T19:24:09.240Z,95395.88
2023-12-31T19:27:10.885Z,95401.19
2023-12-31T19:30:12.892Z,95386.44
2023-12-31T19:33:15.204Z,95385.75
2023-12-31T19:36:17.384Z,95387.88
2023-12-31T19:39:19.493Z,95389.97
2023-12-31T19:42:21.184Z,95397.06
2023-12-31T19:45:24.455Z,95400.69
2023-12-31T19:48:27.566Z,95409.91
2023-12-31T19:51:30.218Z,95396.97
2023-12-31T19:54:31.935Z,95391.00
2023-12-31T19:57:33.725Z,95388.63
2023-12-31T20:00:36.470Z,95386.81
2023-12-31T20:03:46.125Z,95386.97
2023-12-31T20:06:48.285Z,95382.94
2023-12-31T20:09:52.809Z,95382.78
2023-12-31T20:12:54.462Z,95385.28
2023-12-31T20:15:57.898Z,95389.91
2023-12-31T20:18:59.576Z,95401.31
2023-12-31T20:22:01.711Z,95396.19
2023-12-31T20:25:04.903Z,95385.50
2023-12-31T20:28:07.248Z,95405.38
2023-12-31T20:31:08.871Z,95396.91
2023-12-31T20:34:10.845Z,95397.75
2023-12-31T20:37:13.049Z,95402.19
2023-12-31T20:40:15.087Z,95411.13
2023-12-31T20:43:17.295Z,95399.13
2023-12-31T20:46:19.957Z,95400.94
2023-12-31T20:49:22.046Z,95403.44
2023-12-31T20:52:24.169Z,95406.22
2023-12-31T20:55:27.795Z,95406.53
2023-12-31T20:58:29.524Z,95402.91
2023-12-31T21:01:32.322Z,95409.19
2023-12-31T21:04:35.431Z,95410.16
2023-12-31T21:07:38.191Z,95406.81
2023-12-31T21:10:39.920Z,95404.34
2023-12-31T21:13:42.565Z,95410.75
2023-12-31T21:16:45.619Z,95423.25
2023-12-31T21:19:47.970Z,95424.41
2023-12-31T21:22:50.103Z,95431.50
2023-12-31T21:25:52.011Z,95421.91
2023-12-31T21:28:56.163Z,95438.59
2023-12-31T21:31:58.886Z,95444.16
2023-12-31T21:35:00.589Z,95444.16
2023-12-31T21:38:02.404Z,95453.91
2023-12-31T21:41:04.266Z,95454.88
2023-12-31T21:44:12.852Z,95449.59
2023-12-31T21:47:15.753Z,95448.63
2023-12-31T21:50:18.385Z,95448.47
2023-12-31T21:53:20.558Z,95448.47
2023-12-31T21:56:46.877Z,95441.53
2023-12-31T21:59:49.036Z,95446.81
2023-12-31T22:02:52.404Z,95438.34
2023-12-31T22:05:54.134Z,95439.00
2023-12-31T22:08:55.761Z,95438.88
2023-12-31T22:11:58.810Z,95445.00
2023-12-31T22:15:01.294Z,95443.31
2023-12-31T22:18:03.820Z,95449.47
2023-12-31T22:21:05.651Z,95452.09
2023-12-31T22:24:07.850Z,95452.09
2023-12-31T22:27:10.290Z,95451.56
2023-12-31T22:30:13.363Z,95455.19
2023-12-31T22:33:15.790Z,95455.19
2023-12-31T22:36:18.749Z,95455.44
2023-12-31T22:39:21.335Z,95458.66
2023-12-31T22:42:22.936Z,95457.97
2023-12-31T22:45:25.032Z,95451.84
2023-12-31T22:48:27.185Z,95454.47
2023-12-31T22:51:28.853Z,95447.50
2023-12-31T22:54:30.443Z,95451.13
2023-12-31T22:57:32.348Z,95438.47
2023-12-31T23:00:34.050Z,95443.19
2023-12-31T23:03:36.115Z,95450.16
2023-12-31T23:06:38.203Z,95444.88
2023-12-31T23:09:39.866Z,95450.47
2023-12-31T23:12:42.415Z,95453.91
2023-12-31T23:15:45.506Z,95453.91
2023-12-31T23:18:48.436Z,95452.53
2023-12-31T23:21:50.123Z,95452.66
2023-12-31T23:24:52.592Z,95458.25
2023-12-31T23:27:54.211Z,95467.03
2023-12-31T23:30:56.086Z,95460.06
2023-12-31T23:33:58.203Z,95478.44
2023-12-31T23:37:05.629Z,95478.28
2023-12-31T23:40:10.122Z,95488.47
2023-12-31T23:43:11.862Z,95491.78
2023-12-31T23:46:13.539Z,95485.13
2023-12-31T23:49:15.233Z,95483.00
2023-12-31T23:52:17.773Z,95473.41
2023-12-31T23:55:20.780Z,95478.81
2023-12-31T23:58:23.996Z,95475.19
